Time;durP1;ratioP1;P1;durP2;ratioP2;P2;SDS_P1;SDS_P2;PMS_P1;PMS_P2;Temp;Humidity;BMP_temperature;BMP_pressure;BME280_temperature;BME280_humidity;BME280_pressure;Samples;Min_cycle;Max_cycle;Signal;HPM_P1;HPM_P2
2023/11/18 00:02:01;;;;;;;44.72;6.85;;;;;;;;;;5031646;28;20041;-40
2023/11/18 00:04:28;;;;;;;45.75;6.28;;;;;;;;;;5031898;28;20029;-40
2023/11/18 00:06:57;;;;;;;51.45;6.32;;;;;;;;;;5032214;28;20087;-40
2023/11/18 00:09:24;;;;;;;41.03;5.78;;;;;;;;;;5031830;28;20072;-40
2023/11/18 00:11:51;;;;;;;56.95;7.07;;;;;;;;;;5031661;28;20119;-40
2023/11/18 00:14:18;;;;;;;61.08;8.38;;;;;;;;;;5030756;28;20500;-40
2023/11/18 00:16:45;;;;;;;59.38;7.25;;;;;;;;;;5031457;28;20112;-40
2023/11/18 00:19:12;;;;;;;48.80;6.72;;;;;;;;;;5025011;28;20038;-40
2023/11/18 00:21:39;;;;;;;55.13;6.75;;;;;;;;;;5029083;28;20030;-40
2023/11/18 00:24:07;;;;;;;65.90;6.20;;;;;;;;;;5019474;28;20884;-43
2023/11/18 00:26:35;;;;;;;64.85;6.88;;;;;;;;;;5018211;28;20034;-40
2023/11/18 00:29:02;;;;;;;167.13;10.25;;;;;;;;;;5006826;28;20506;-38
2023/11/18 00:31:29;;;;;;;152.25;11.05;;;;;;;;;;5022627;28;20064;-38
2023/11/18 00:33:56;;;;;;;159.43;11.50;;;;;;;;;;5025751;28;20037;-38
2023/11/18 00:36:23;;;;;;;141.90;11.48;;;;;;;;;;5030136;28;20026;-39
2023/11/18 00:38:50;;;;;;;102.72;9.65;;;;;;;;;;5029650;28;20080;-39
2023/11/18 00:41:17;;;;;;;91.55;8.68;;;;;;;;;;5030836;28;20040;-37
2023/11/18 00:43:44;;;;;;;74.00;6.85;;;;;;;;;;5028696;28;20067;-40
2023/11/18 00:46:11;;;;;;;67.18;7.07;;;;;;;;;;5029343;28;20067;-40
2023/11/18 00:48:38;;;;;;;79.25;9.10;;;;;;;;;;5020492;28;20045;-39
2023/11/18 00:51:07;;;;;;;71.40;8.93;;;;;;;;;;5003012;28;20034;-42
2023/11/18 00:53:34;;;;;;;72.70;10.43;;;;;;;;;;5002460;28;20382;-37
2023/11/18 00:56:01;;;;;;;75.38;11.73;;;;;;;;;;5008378;28;20027;-36
2023/11/18 00:58:28;;;;;;;81.88;11.23;;;;;;;;;;5006184;28;20033;-36
2023/11/18 01:00:55;;;;;;;88.18;13.20;;;;;;;;;;5008017;28;20519;-37
2023/11/18 01:03:22;;;;;;;100.32;13.25;;;;;;;;;;5001702;28;20060;-36
2023/11/18 01:05:49;;;;;;;96.22;11.85;;;;;;;;;;5007386;28;20022;-37
2023/11/18 01:08:17;;;;;;;79.30;12.00;;;;;;;;;;5011232;28;20057;-36
2023/11/18 01:10:44;;;;;;;84.97;11.63;;;;;;;;;;5010866;28;20414;-36
2023/11/18 01:13:11;;;;;;;73.15;10.63;;;;;;;;;;5013668;28;20079;-37
2023/11/18 01:15:38;;;;;;;56.78;9.35;;;;;;;;;;5007922;28;20038;-36
2023/11/18 01:18:06;;;;;;;60.00;9.25;;;;;;;;;;5014955;28;20147;-35
2023/11/18 01:20:33;;;;;;;60.05;8.80;;;;;;;;;;5015107;28;20041;-37
2023/11/18 01:23:00;;;;;;;47.15;8.02;;;;;;;;;;5014003;28;20476;-35
2023/11/18 01:25:27;;;;;;;44.67;7.85;;;;;;;;;;5013256;28;20085;-38
2023/11/18 01:27:54;;;;;;;35.80;6.75;;;;;;;;;;5001123;28;20034;-39
2023/11/18 01:30:23;;;;;;;47.45;6.78;;;;;;;;;;5003885;28;20049;-39
2023/11/18 01:32:50;;;;;;;47.42;6.75;;;;;;;;;;5007376;28;20104;-41
2023/11/18 01:35:17;;;;;;;121.00;10.35;;;;;;;;;;5012750;28;20072;-39
2023/11/18 01:37:44;;;;;;;71.90;7.75;;;;;;;;;;5014633;28;20034;-40
2023/11/18 01:40:13;;;;;;;48.40;6.63;;;;;;;;;;5010072;28;20034;-39
2023/11/18 01:42:43;;;;;;;55.20;6.60;;;;;;;;;;5012124;28;20041;-39
2023/11/18 01:45:11;;;;;;;53.42;6.07;;;;;;;;;;5013007;28;20038;-40
2023/11/18 01:47:39;;;;;;;47.70;6.15;;;;;;;;;;5012740;28;20022;-39
2023/11/18 01:50:08;;;;;;;43.47;5.68;;;;;;;;;;5025650;28;20052;-39
2023/11/18 01:52:35;;;;;;;51.10;5.70;;;;;;;;;;5032109;28;20396;-38
2023/11/18 01:55:06;;;;;;;48.33;5.40;;;;;;;;;;5033925;28;20057;-39
2023/11/18 01:57:34;;;;;;;51.65;5.85;;;;;;;;;;5022508;28;20033;-38
2023/11/18 02:00:06;;;;;;;58.42;6.03;;;;;;;;;;5031676;28;20037;-39
2023/11/18 02:02:34;;;;;;;56.83;6.33;;;;;;;;;;5034075;28;20427;-41
2023/11/18 02:05:01;;;;;;;48.88;5.40;;;;;;;;;;5031697;28;20076;-40
2023/11/18 02:07:29;;;;;;;53.67;5.72;;;;;;;;;;5034525;28;20069;-39
2023/11/18 02:09:57;;;;;;;43.05;5.70;;;;;;;;;;5035128;28;20080;-39
2023/11/18 02:12:45;;;;;;;33.92;4.78;;;;;;;;;;5043905;28;20033;-39
2023/11/18 02:15:13;;;;;;;80.30;6.18;;;;;;;;;;5034479;28;20484;-40
2023/11/18 02:17:40;;;;;;;98.30;7.40;;;;;;;;;;5034311;28;20103;-39
2023/11/18 02:20:15;;;;;;;95.57;7.75;;;;;;;;;;5034223;28;20033;-39
2023/11/18 02:22:48;;;;;;;66.95;6.40;;;;;;;;;;5033781;28;20040;-39
2023/11/18 02:25:19;;;;;;;67.45;6.95;;;;;;;;;;5031110;28;20103;-39
2023/11/18 02:27:47;;;;;;;66.82;6.78;;;;;;;;;;5034008;28;20022;-39
2023/11/18 02:30:16;;;;;;;72.47;6.82;;;;;;;;;;5033958;28;20531;-39
2023/11/18 02:32:53;;;;;;;53.92;5.40;;;;;;;;;;5034023;28;20120;-40
2023/11/18 02:35:25;;;;;;;61.33;5.60;;;;;;;;;;5033852;28;20053;-39
2023/11/18 02:37:54;;;;;;;42.65;5.07;;;;;;;;;;5033994;28;20038;-40
2023/11/18 02:40:30;;;;;;;45.47;4.90;;;;;;;;;;5033882;28;20033;-39
2023/11/18 02:42:59;;;;;;;59.97;5.00;;;;;;;;;;5033921;28;20025;-39
2023/11/18 02:45:27;;;;;;;48.60;5.30;;;;;;;;;;5033767;28;20040;-40
2023/11/18 02:47:57;;;;;;;69.82;5.43;;;;;;;;;;5033568;28;20025;-39
2023/11/18 02:50:25;;;;;;;73.30;5.80;;;;;;;;;;5033611;28;20045;-39
2023/11/18 02:52:52;;;;;;;67.88;5.97;;;;;;;;;;5033744;28;20112;-39
2023/11/18 02:55:21;;;;;;;83.75;7.43;;;;;;;;;;5033832;28;20030;-39
2023/11/18 02:57:51;;;;;;;58.58;5.50;;;;;;;;;;5033711;28;20034;-39
2023/11/18 03:00:21;;;;;;;70.20;6.47;;;;;;;;;;5033612;28;20399;-39
2023/11/18 03:02:50;;;;;;;40.45;4.78;;;;;;;;;;5033536;28;20065;-39
2023/11/18 03:05:17;;;;;;;45.22;5.50;;;;;;;;;;5033244;28;20030;-40
2023/11/18 03:07:47;;;;;;;48.53;5.90;;;;;;;;;;5033343;28;20033;-39
2023/11/18 03:10:20;;;;;;;50.75;5.50;;;;;;;;;;5033316;28;20049;-39
2023/11/18 03:12:48;;;;;;;35.40;4.10;;;;;;;;;;5033306;28;20029;-39
2023/11/18 03:15:18;;;;;;;44.50;4.57;;;;;;;;;;5033434;28;20079;-39
2023/11/18 03:17:48;;;;;;;43.13;4.45;;;;;;;;;;5015126;28;20399;-39
2023/11/18 03:20:18;;;;;;;36.38;4.22;;;;;;;;;;5032246;28;20029;-38
2023/11/18 03:22:45;;;;;;;35.78;4.45;;;;;;;;;;5033209;28;20033;-38
2023/11/18 03:25:13;;;;;;;39.03;3.60;;;;;;;;;;5033165;28;20080;-38
2023/11/18 03:27:40;;;;;;;31.30;3.30;;;;;;;;;;5033084;28;20051;-37
2023/11/18 03:30:08;;;;;;;29.50;2.97;;;;;;;;;;5032861;28;20120;-38
2023/11/18 03:32:38;;;;;;;38.55;3.83;;;;;;;;;;5033081;28;20419;-38
2023/11/18 03:35:11;;;;;;;30.35;3.15;;;;;;;;;;5014041;28;20030;-37
2023/11/18 03:37:40;;;;;;;73.63;4.75;;;;;;;;;;5032949;28;20029;-39
2023/11/18 03:40:11;;;;;;;45.90;3.92;;;;;;;;;;5032750;28;20687;-39
2023/11/18 03:42:39;;;;;;;47.75;3.97;;;;;;;;;;5014985;28;20392;-39
2023/11/18 03:45:07;;;;;;;41.13;3.33;;;;;;;;;;5032724;28;20048;-39
2023/11/18 03:47:34;;;;;;;24.67;2.78;;;;;;;;;;5032684;28;20364;-39
2023/11/18 03:50:01;;;;;;;29.65;3.65;;;;;;;;;;5032424;28;20053;-39
2023/11/18 03:52:28;;;;;;;32.45;3.88;;;;;;;;;;5032535;28;20029;-40
2023/11/18 03:54:56;;;;;;;22.90;3.53;;;;;;;;;;5014729;28;20034;-39
2023/11/18 03:57:23;;;;;;;30.88;3.35;;;;;;;;;;5032621;28;20029;-39
2023/11/18 03:59:50;;;;;;;35.75;3.20;;;;;;;;;;5032506;28;20495;-39
2023/11/18 04:02:17;;;;;;;26.13;2.65;;;;;;;;;;5032552;28;20556;-39
2023/11/18 04:04:44;;;;;;;26.00;3.10;;;;;;;;;;5032493;28;20048;-39
2023/11/18 04:07:11;;;;;;;26.48;2.92;;;;;;;;;;5032401;28;20103;-39
2023/11/18 04:09:41;;;;;;;19.45;2.08;;;;;;;;;;5032264;28;20038;-39
2023/11/18 04:12:09;;;;;;;20.08;1.98;;;;;;;;;;5032147;28;20500;-39
2023/11/18 04:14:36;;;;;;;20.80;2.33;;;;;;;;;;5032196;28;20034;-39
2023/11/18 04:17:03;;;;;;;27.80;2.60;;;;;;;;;;5032115;28;20022;-39
2023/11/18 04:19:30;;;;;;;22.05;2.50;;;;;;;;;;5032207;28;20041;-39
2023/11/18 04:21:57;;;;;;;21.52;2.28;;;;;;;;;;5032107;28;20037;-40
2023/11/18 04:24:24;;;;;;;21.15;2.40;;;;;;;;;;5032168;28;20427;-40
2023/11/18 04:26:51;;;;;;;49.97;3.97;;;;;;;;;;5032126;28;20053;-40
2023/11/18 04:29:18;;;;;;;28.02;2.80;;;;;;;;;;5032035;28;20030;-38
2023/11/18 04:31:45;;;;;;;21.23;2.25;;;;;;;;;;5032057;28;20030;-39
2023/11/18 04:34:13;;;;;;;30.20;3.15;;;;;;;;;;5032034;28;20028;-40
2023/11/18 04:36:42;;;;;;;29.13;2.72;;;;;;;;;;5032051;28;20030;-39
2023/11/18 04:39:11;;;;;;;23.75;2.70;;;;;;;;;;5031969;28;20041;-40
2023/11/18 04:41:38;;;;;;;19.33;1.90;;;;;;;;;;5031761;28;20034;-39
2023/11/18 04:44:06;;;;;;;14.68;1.60;;;;;;;;;;5031879;28;20030;-39
2023/11/18 04:46:34;;;;;;;19.88;2.10;;;;;;;;;;5013681;28;20116;-39
2023/11/18 04:49:01;;;;;;;17.05;2.13;;;;;;;;;;5031461;28;20060;-39
2023/11/18 04:51:28;;;;;;;24.75;2.08;;;;;;;;;;5031796;28;20037;-40
2023/11/18 04:53:55;;;;;;;16.33;1.95;;;;;;;;;;5031790;28;20160;-39
2023/11/18 04:56:22;;;;;;;27.35;2.45;;;;;;;;;;5031763;28;20091;-39
2023/11/18 04:58:50;;;;;;;22.67;2.17;;;;;;;;;;5031644;28;20123;-39
2023/11/18 05:01:18;;;;;;;21.23;1.98;;;;;;;;;;5031484;28;20499;-40
2023/11/18 05:03:45;;;;;;;20.90;2.10;;;;;;;;;;5031548;28;20038;-39
2023/11/18 05:06:12;;;;;;;19.30;2.20;;;;;;;;;;5031394;28;20028;-39
2023/11/18 05:08:39;;;;;;;32.05;3.10;;;;;;;;;;5031487;28;20108;-39
2023/11/18 05:11:06;;;;;;;28.58;2.72;;;;;;;;;;5031405;28;20083;-39
2023/11/18 05:13:33;;;;;;;44.38;4.15;;;;;;;;;;5031504;28;20032;-40
2023/11/18 05:16:00;;;;;;;30.23;2.42;;;;;;;;;;5031324;28;20040;-39
2023/11/18 05:18:29;;;;;;;28.45;3.80;;;;;;;;;;5031446;28;20021;-40
2023/11/18 05:20:57;;;;;;;31.27;3.55;;;;;;;;;;5031426;28;20120;-40
2023/11/18 05:23:24;;;;;;;25.00;2.35;;;;;;;;;;5031495;28;20112;-39
2023/11/18 05:25:51;;;;;;;25.80;2.40;;;;;;;;;;5031301;28;20496;-39
2023/11/18 05:28:19;;;;;;;25.75;2.35;;;;;;;;;;5031349;28;20052;-39
2023/11/18 05:30:47;;;;;;;32.97;3.25;;;;;;;;;;5031203;28;20044;-39
2023/11/18 05:33:17;;;;;;;20.52;2.13;;;;;;;;;;5031248;28;20488;-39
2023/11/18 05:35:51;;;;;;;37.45;2.90;;;;;;;;;;5031174;28;20033;-38
2023/11/18 05:38:31;;;;;;;32.17;2.90;;;;;;;;;;5031136;28;20056;-39
2023/11/18 05:41:00;;;;;;;59.95;4.78;;;;;;;;;;5031175;28;20040;-40
2023/11/18 05:43:30;;;;;;;57.03;4.13;;;;;;;;;;5031137;28;20040;-39
2023/11/18 05:49:06;;;;;;;46.00;3.95;;;;;;;;;;4950487;29;20063;-39
2023/11/18 05:51:32;;;;;;;39.50;3.25;;;;;;;;;;5018181;28;20129;-40
2023/11/18 05:53:59;;;;;;;30.15;3.00;;;;;;;;;;5031174;28;20095;-40
2023/11/18 05:56:26;;;;;;;20.63;3.13;;;;;;;;;;5031097;28;20025;-40
2023/11/18 05:58:53;;;;;;;26.45;2.85;;;;;;;;;;5032447;28;20025;-41
2023/11/18 06:01:20;;;;;;;19.77;2.05;;;;;;;;;;5032589;28;20065;-40
2023/11/18 06:03:47;;;;;;;20.70;2.95;;;;;;;;;;5034867;28;20107;-40
2023/11/18 06:06:16;;;;;;;27.48;2.75;;;;;;;;;;5034722;28;20056;-40
2023/11/18 06:08:43;;;;;;;54.30;3.30;;;;;;;;;;5034749;28;20061;-40
2023/11/18 06:11:14;;;;;;;27.20;2.97;;;;;;;;;;5034625;28;20037;-41
2023/11/18 06:13:46;;;;;;;23.70;2.22;;;;;;;;;;5034621;28;20423;-41
2023/11/18 06:16:14;;;;;;;;;;;;;;;;;;5034803;28;20033;-40
2023/11/18 06:18:42;;;;;;;33.20;2.55;;;;;;;;;;5034568;28;19916;-40
2023/11/18 06:21:11;;;;;;;25.33;2.22;;;;;;;;;;5034194;28;20488;-40
2023/11/18 06:23:38;;;;;;;29.42;3.42;;;;;;;;;;5016591;28;20780;-40
2023/11/18 06:26:05;;;;;;;31.85;2.28;;;;;;;;;;5033964;28;20025;-39
2023/11/18 06:28:33;;;;;;;52.28;3.90;;;;;;;;;;5034300;28;20029;-38
2023/11/18 06:31:00;;;;;;;43.05;3.40;;;;;;;;;;5034253;28;20076;-39
2023/11/18 06:33:27;;;;;;;44.05;3.72;;;;;;;;;;5034276;28;20029;-39
2023/11/18 06:35:58;;;;;;;42.53;3.53;;;;;;;;;;5034147;28;20017;-39
2023/11/18 06:38:25;;;;;;;57.72;4.05;;;;;;;;;;5034112;28;20029;-39
2023/11/18 06:40:52;;;;;;;52.22;4.50;;;;;;;;;;5034142;28;20026;-39
2023/11/18 06:43:20;;;;;;;37.30;3.42;;;;;;;;;;5033856;28;20029;-39
2023/11/18 06:45:48;;;;;;;41.28;4.07;;;;;;;;;;5033941;28;20483;-39
2023/11/18 06:48:19;;;;;;;48.42;3.90;;;;;;;;;;5033757;28;20038;-40
2023/11/18 06:50:47;;;;;;;55.45;4.45;;;;;;;;;;5033465;28;20053;-41
2023/11/18 06:53:15;;;;;;;46.35;3.45;;;;;;;;;;5033902;28;20028;-40
2023/11/18 06:55:42;;;;;;;39.88;3.13;;;;;;;;;;5033739;28;20060;-40
2023/11/18 06:58:09;;;;;;;36.97;3.17;;;;;;;;;;5033921;28;20026;-40
2023/11/18 07:00:37;;;;;;;58.60;5.63;;;;;;;;;;5033845;28;20049;-40
2023/11/18 07:03:05;;;;;;;41.40;3.53;;;;;;;;;;5033654;28;20091;-41
2023/11/18 07:05:32;;;;;;;37.88;2.97;;;;;;;;;;5033627;28;20428;-40
2023/11/18 07:07:59;;;;;;;27.35;2.35;;;;;;;;;;5033652;28;20026;-40
2023/11/18 07:10:27;;;;;;;26.15;2.85;;;;;;;;;;5033328;28;20038;-40
2023/11/18 07:12:54;;;;;;;35.97;2.60;;;;;;;;;;5033344;28;20383;-40
2023/11/18 07:15:21;;;;;;;28.42;2.65;;;;;;;;;;5033358;28;20151;-40
2023/11/18 07:17:49;;;;;;;25.25;2.55;;;;;;;;;;5033391;28;20105;-40
2023/11/18 07:20:16;;;;;;;19.27;2.05;;;;;;;;;;5033437;28;20029;-40
2023/11/18 07:22:43;;;;;;;22.90;2.65;;;;;;;;;;5033448;28;20033;-41
2023/11/18 07:25:10;;;;;;;15.52;2.25;;;;;;;;;;5033201;28;20037;-40
2023/11/18 07:27:38;;;;;;;25.48;2.17;;;;;;;;;;5033284;28;20028;-40
2023/11/18 07:30:06;;;;;;;18.90;2.38;;;;;;;;;;5033125;28;20041;-40
2023/11/18 07:32:33;;;;;;;9.55;1.52;;;;;;;;;;5032862;28;20495;-40
2023/11/18 07:35:00;;;;;;;19.42;1.85;;;;;;;;;;5033162;28;20152;-40
2023/11/18 07:37:27;;;;;;;15.50;1.70;;;;;;;;;;5032908;28;20045;-40
2023/11/18 07:39:55;;;;;;;24.38;2.38;;;;;;;;;;5032988;28;20030;-40
2023/11/18 07:42:22;;;;;;;12.35;1.60;;;;;;;;;;5032959;28;20491;-40
2023/11/18 07:44:49;;;;;;;15.23;1.77;;;;;;;;;;5032962;28;20026;-41
2023/11/18 07:47:16;;;;;;;11.85;1.38;;;;;;;;;;5174603;22;20045;-31
2023/11/18 07:49:44;;;;;;;14.35;1.48;;;;;;;;;;5032891;28;20045;-32
2023/11/18 07:52:12;;;;;;;16.40;1.70;;;;;;;;;;5014919;28;20051;-31
2023/11/18 07:54:39;;;;;;;11.02;1.88;;;;;;;;;;5032834;28;20087;-31
2023/11/18 07:57:10;;;;;;;16.17;1.58;;;;;;;;;;5032582;28;20040;-32
2023/11/18 07:59:37;;;;;;;9.20;1.25;;;;;;;;;;5040021;28;20033;-33
2023/11/18 08:02:09;;;;;;;14.73;1.20;;;;;;;;;;5052528;28;20025;-33
2023/11/18 08:04:35;;;;;;;13.23;1.67;;;;;;;;;;5052423;28;20029;-33
2023/11/18 08:07:04;;;;;;;15.23;1.50;;;;;;;;;;5034435;28;20677;-32
2023/11/18 08:09:31;;;;;;;10.25;1.20;;;;;;;;;;5051928;28;20039;-33
2023/11/18 08:11:58;;;;;;;11.55;1.42;;;;;;;;;;5052119;28;20031;-32
2023/11/18 08:14:26;;;;;;;7.57;1.00;;;;;;;;;;5052189;28;20109;-33
2023/11/18 08:16:55;;;;;;;12.73;1.42;;;;;;;;;;5052197;28;20021;-31
2023/11/18 08:19:23;;;;;;;16.13;1.30;;;;;;;;;;5034261;28;20040;-31
2023/11/18 08:21:50;;;;;;;14.27;1.13;;;;;;;;;;5051634;28;20025;-30
2023/11/18 08:24:17;;;;;;;11.05;1.30;;;;;;;;;;5051955;28;20033;-30
2023/11/18 08:26:44;;;;;;;5.95;0.93;;;;;;;;;;5051881;28;20021;-30
2023/11/18 08:29:12;;;;;;;8.20;0.80;;;;;;;;;;5052005;28;20028;-30
2023/11/18 08:31:40;;;;;;;8.68;1.00;;;;;;;;;;5051726;28;20037;-30
2023/11/18 08:34:07;;;;;;;10.18;0.90;;;;;;;;;;5051836;28;20065;-30
2023/11/18 08:36:34;;;;;;;6.90;0.95;;;;;;;;;;5051719;28;20037;-31
2023/11/18 08:39:02;;;;;;;5.13;1.00;;;;;;;;;;5051894;28;20096;-31
2023/11/18 08:41:30;;;;;;;6.72;0.80;;;;;;;;;;5051903;28;20044;-30
2023/11/18 08:43:57;;;;;;;5.70;0.95;;;;;;;;;;5051671;28;20079;-30
2023/11/18 08:46:24;;;;;;;3.80;0.85;;;;;;;;;;5051558;28;20123;-31
2023/11/18 08:48:54;;;;;;;9.77;1.27;;;;;;;;;;5051515;28;20482;-30
2023/11/18 08:51:21;;;;;;;5.75;1.00;;;;;;;;;;5051591;28;20120;-31
2023/11/18 08:53:50;;;;;;;7.05;0.80;;;;;;;;;;5051725;28;20098;-31
2023/11/18 08:56:19;;;;;;;4.60;0.95;;;;;;;;;;5051338;28;20057;-31
2023/11/18 08:58:48;;;;;;;5.82;0.75;;;;;;;;;;5051412;28;20072;-31
2023/11/18 09:01:16;;;;;;;6.18;0.60;;;;;;;;;;5051430;28;20037;-32
2023/11/18 09:03:48;;;;;;;5.75;0.60;;;;;;;;;;5051632;28;20024;-30
2023/11/18 09:06:18;;;;;;;2.28;0.70;;;;;;;;;;5051253;28;20029;-32
2023/11/18 09:08:57;;;;;;;3.78;0.73;;;;;;;;;;5051524;28;20029;-31
2023/11/18 09:11:28;;;;;;;5.20;0.82;;;;;;;;;;5051293;28;20056;-31
2023/11/18 09:13:59;;;;;;;3.83;0.70;;;;;;;;;;5040287;28;20116;-33
2023/11/18 09:16:30;;;;;;;3.42;0.65;;;;;;;;;;5038794;28;20037;-33
2023/11/18 09:19:02;;;;;;;8.18;0.82;;;;;;;;;;5041857;28;20021;-31
2023/11/18 09:21:31;;;;;;;7.72;0.70;;;;;;;;;;5041660;28;20025;-31
2023/11/18 09:23:58;;;;;;;10.02;0.98;;;;;;;;;;5040289;28;20048;-31
2023/11/18 09:26:29;;;;;;;5.80;1.10;;;;;;;;;;5040381;28;20022;-33
2023/11/18 09:28:57;;;;;;;5.32;0.80;;;;;;;;;;5039969;28;20082;-31
2023/11/18 09:31:25;;;;;;;12.60;1.30;;;;;;;;;;5040057;28;20052;-31
2023/11/18 09:33:57;;;;;;;12.50;1.27;;;;;;;;;;5043272;28;20028;-31
2023/11/18 09:36:24;;;;;;;8.77;0.82;;;;;;;;;;5054978;28;20033;-31
2023/11/18 09:38:52;;;;;;;8.27;1.10;;;;;;;;;;5054991;28;20025;-31
2023/11/18 09:41:19;;;;;;;6.38;1.00;;;;;;;;;;5055012;28;20085;-31
2023/11/18 09:43:46;;;;;;;6.45;0.90;;;;;;;;;;5055191;28;20382;-31
2023/11/18 09:46:18;;;;;;;10.27;1.10;;;;;;;;;;5054557;28;20036;-30
2023/11/18 09:48:52;;;;;;;9.40;1.25;;;;;;;;;;5054972;28;20084;-30
2023/11/18 09:51:29;;;;;;;5.22;0.93;;;;;;;;;;5054905;28;20060;-30
2023/11/18 09:54:00;;;;;;;11.18;1.30;;;;;;;;;;5054794;28;20025;-30
2023/11/18 09:56:39;;;;;;;13.40;1.10;;;;;;;;;;5054864;28;20036;-30
2023/11/18 09:59:16;;;;;;;10.68;1.17;;;;;;;;;;5054844;28;20021;-31
2023/11/18 10:01:46;;;;;;;7.35;1.10;;;;;;;;;;5054929;28;20421;-30
2023/11/18 10:04:17;;;;;;;9.70;1.10;;;;;;;;;;5054784;28;20033;-31
2023/11/18 10:06:45;;;;;;;7.45;0.90;;;;;;;;;;5054511;28;20063;-31
2023/11/18 10:09:15;;;;;;;10.95;1.60;;;;;;;;;;5054690;28;20057;-30
2023/11/18 10:11:46;;;;;;;10.20;0.80;;;;;;;;;;5054776;28;20029;-31
2023/11/18 10:14:16;;;;;;;10.15;0.82;;;;;;;;;;5054471;28;20032;-31
2023/11/18 10:16:47;;;;;;;6.50;1.08;;;;;;;;;;5054318;28;20726;-31
2023/11/18 10:19:16;;;;;;;3.30;0.65;;;;;;;;;;5054520;28;20029;-31
2023/11/18 10:21:48;;;;;;;10.18;1.10;;;;;;;;;;5054301;28;20086;-31
2023/11/18 10:24:19;;;;;;;5.75;0.88;;;;;;;;;;5054267;28;20029;-31
2023/11/18 10:27:00;;;;;;;3.65;0.80;;;;;;;;;;5054004;28;20082;-31
2023/11/18 10:29:30;;;;;;;6.97;0.90;;;;;;;;;;5054113;28;20080;-31
2023/11/18 10:32:19;;;;;;;4.80;0.63;;;;;;;;;;5054304;28;20017;-30
2023/11/18 10:34:46;;;;;;;4.65;1.00;;;;;;;;;;5054049;28;20492;-31
2023/11/18 10:37:13;;;;;;;3.03;0.90;;;;;;;;;;5054026;28;20075;-31
2023/11/18 10:39:40;;;;;;;5.03;0.95;;;;;;;;;;5053985;28;20086;-30
2023/11/18 10:42:08;;;;;;;4.13;0.77;;;;;;;;;;5054072;28;20025;-31
2023/11/18 10:44:36;;;;;;;5.13;0.80;;;;;;;;;;5053434;28;20494;-31
2023/11/18 10:47:02;;;;;;;13.25;1.08;;;;;;;;;;5053554;28;20084;-31
2023/11/18 10:49:36;;;;;;;13.88;1.38;;;;;;;;;;5053937;28;20040;-31
2023/11/18 10:52:06;;;;;;;10.18;1.50;;;;;;;;;;5053685;28;20040;-31
2023/11/18 10:54:34;;;;;;;9.63;1.00;;;;;;;;;;5053711;28;20033;-31
2023/11/18 10:57:07;;;;;;;16.40;1.45;;;;;;;;;;5053756;28;20025;-31
2023/11/18 10:59:34;;;;;;;10.27;1.13;;;;;;;;;;5053569;28;20044;-30
2023/11/18 11:02:01;;;;;;;9.13;1.08;;;;;;;;;;5053753;28;20017;-31
2023/11/18 11:04:44;;;;;;;9.75;1.00;;;;;;;;;;5053782;28;20049;-31
2023/11/18 11:07:13;;;;;;;14.30;1.00;;;;;;;;;;5053409;28;20041;-30
2023/11/18 11:09:42;;;;;;;7.55;0.85;;;;;;;;;;5053226;28;20394;-30
2023/11/18 11:12:16;;;;;;;8.93;1.00;;;;;;;;;;5053727;28;20419;-30
2023/11/18 11:15:04;;;;;;;9.35;1.13;;;;;;;;;;5053359;28;20025;-30
2023/11/18 11:17:34;;;;;;;6.68;1.17;;;;;;;;;;5003667;28;20040;-30
2023/11/18 11:20:17;;;;;;;9.20;1.38;;;;;;;;;;5053092;28;20032;-30
2023/11/18 11:22:45;;;;;;;;;;;;;;;;;;5053817;28;20498;-30
2023/11/18 11:25:23;;;;;;;43.53;3.60;;;;;;;;;;5035276;28;19916;-31
2023/11/18 11:28:10;;;;;;;12.90;1.48;;;;;;;;;;5052775;28;20021;-31
2023/11/18 11:30:47;;;;;;;17.45;1.83;;;;;;;;;;5038116;28;20041;-31
2023/11/18 11:33:16;;;;;;;10.25;1.20;;;;;;;;;;5033228;28;20025;-31
2023/11/18 11:35:44;;;;;;;12.07;2.03;;;;;;;;;;5032982;28;20038;-31
2023/11/18 11:38:13;;;;;;;8.07;1.42;;;;;;;;;;5038290;28;20086;-33
2023/11/18 11:40:42;;;;;;;6.93;1.17;;;;;;;;;;5042408;28;20383;-31
2023/11/18 11:43:10;;;;;;;24.40;1.95;;;;;;;;;;5043483;28;20092;-31
2023/11/18 11:45:39;;;;;;;11.25;1.33;;;;;;;;;;5041937;28;20072;-33
2023/11/18 11:48:14;;;;;;;7.70;1.08;;;;;;;;;;5041290;28;20041;-31
2023/11/18 11:50:51;;;;;;;17.42;1.90;;;;;;;;;;5042129;28;20033;-33
2023/11/18 11:53:22;;;;;;;94.32;7.38;;;;;;;;;;5042066;28;20029;-34
2023/11/18 11:55:57;;;;;;;28.73;3.00;;;;;;;;;;5040277;28;20052;-34
2023/11/18 11:58:28;;;;;;;27.38;2.38;;;;;;;;;;5041490;28;20057;-33
2023/11/18 12:00:55;;;;;;;15.77;1.90;;;;;;;;;;5041347;28;20022;-33
2023/11/18 12:03:25;;;;;;;15.30;1.30;;;;;;;;;;5041825;28;20025;-33
2023/11/18 12:06:07;;;;;;;9.55;1.38;;;;;;;;;;5042877;28;20021;-33
2023/11/18 12:08:39;;;;;;;10.05;1.40;;;;;;;;;;5025124;28;20025;-33
2023/11/18 12:11:09;;;;;;;14.10;1.20;;;;;;;;;;5042353;28;20049;-31
2023/11/18 12:13:39;;;;;;;11.15;1.48;;;;;;;;;;5040015;28;20444;-31
2023/11/18 12:16:10;;;;;;;13.50;1.38;;;;;;;;;;5032109;28;20032;-31
2023/11/18 12:18:37;;;;;;;11.43;1.50;;;;;;;;;;5032246;28;20510;-31
2023/11/18 12:21:04;;;;;;;17.48;1.67;;;;;;;;;;5032292;28;20105;-31
2023/11/18 12:23:34;;;;;;;10.52;1.30;;;;;;;;;;5032137;28;20018;-30
2023/11/18 12:26:02;;;;;;;13.13;1.60;;;;;;;;;;5032110;28;20072;-31
2023/11/18 12:28:34;;;;;;;24.80;2.30;;;;;;;;;;5032118;28;20109;-30
2023/11/18 12:31:05;;;;;;;124.43;8.57;;;;;;;;;;5031992;28;20464;-30
2023/11/18 12:33:50;;;;;;;82.22;7.07;;;;;;;;;;5032175;28;20487;-31
2023/11/18 12:36:29;;;;;;;69.25;5.72;;;;;;;;;;5031907;28;20032;-31
2023/11/18 12:39:14;;;;;;;46.40;4.03;;;;;;;;;;5030600;28;20037;-28
2023/11/18 12:41:41;;;;;;;19.85;3.00;;;;;;;;;;5034719;28;20115;-29
2023/11/18 12:44:23;;;;;;;36.05;3.53;;;;;;;;;;5040388;28;20033;-31
2023/11/18 12:47:14;;;;;;;28.13;2.95;;;;;;;;;;5036701;28;20049;-29
2023/11/18 12:49:44;;;;;;;30.75;3.17;;;;;;;;;;5031490;28;20471;-31
2023/11/18 12:52:18;;;;;;;31.08;3.55;;;;;;;;;;5031623;28;20050;-31
2023/11/18 12:54:50;;;;;;;33.78;3.28;;;;;;;;;;5031644;28;20041;-29
2023/11/18 12:57:38;;;;;;;43.53;4.07;;;;;;;;;;5031424;28;20028;-30
2023/11/18 13:00:11;;;;;;;43.35;3.75;;;;;;;;;;5031490;28;20065;-29
2023/11/18 13:02:38;;;;;;;26.73;3.03;;;;;;;;;;5031754;28;20029;-29
2023/11/18 13:05:09;;;;;;;55.00;4.97;;;;;;;;;;5031450;28;20120;-29
2023/11/18 13:07:36;;;;;;;67.95;5.68;;;;;;;;;;5030946;28;20402;-31
2023/11/18 13:10:04;;;;;;;75.70;6.18;;;;;;;;;;5031320;28;20036;-31
2023/11/18 13:12:31;;;;;;;69.97;6.10;;;;;;;;;;5031624;28;20620;-31
2023/11/18 13:14:58;;;;;;;57.40;5.45;;;;;;;;;;5031513;28;20076;-31
2023/11/18 13:17:28;;;;;;;72.30;5.82;;;;;;;;;;5031256;28;20029;-31
2023/11/18 13:19:54;;;;;;;55.28;5.20;;;;;;;;;;5031224;28;20030;-30
2023/11/18 13:22:23;;;;;;;109.35;7.95;;;;;;;;;;5031229;28;20030;-30
2023/11/18 13:24:51;;;;;;;90.60;7.20;;;;;;;;;;5031419;28;20095;-31
2023/11/18 13:27:19;;;;;;;89.43;8.10;;;;;;;;;;5042426;28;20372;-32
2023/11/18 13:29:53;;;;;;;116.75;9.25;;;;;;;;;;5038935;28;20052;-31
2023/11/18 13:32:23;;;;;;;93.88;7.90;;;;;;;;;;5031106;28;20039;-29
2023/11/18 13:34:51;;;;;;;82.20;6.82;;;;;;;;;;5031214;28;20048;-32
2023/11/18 13:37:21;;;;;;;87.28;6.43;;;;;;;;;;5031094;28;20033;-31
2023/11/18 13:40:05;;;;;;;76.32;6.28;;;;;;;;;;5040333;28;20038;-30
2023/11/18 13:42:33;;;;;;;70.63;6.07;;;;;;;;;;5036138;28;20042;-31
2023/11/18 13:45:01;;;;;;;56.00;6.13;;;;;;;;;;5042664;28;20805;-31
2023/11/18 13:47:28;;;;;;;61.95;5.53;;;;;;;;;;5039627;28;20050;-34
2023/11/18 13:49:58;;;;;;;48.63;4.90;;;;;;;;;;5040010;28;20071;-31
2023/11/18 13:52:25;;;;;;;44.53;4.70;;;;;;;;;;5036101;28;20091;-33
2023/11/18 13:54:57;;;;;;;45.53;4.60;;;;;;;;;;5036505;28;20037;-32
2023/11/18 13:57:25;;;;;;;50.07;4.47;;;;;;;;;;5039316;28;20155;-31
2023/11/18 13:59:52;;;;;;;34.08;3.65;;;;;;;;;;5045503;28;20041;-33
2023/11/18 14:02:19;;;;;;;27.67;3.50;;;;;;;;;;5041808;28;20167;-33
2023/11/18 14:04:46;;;;;;;33.28;4.13;;;;;;;;;;5037062;28;20029;-31
2023/11/18 14:07:17;;;;;;;31.77;3.70;;;;;;;;;;5030757;28;20038;-32
2023/11/18 14:09:47;;;;;;;33.20;3.78;;;;;;;;;;5030688;28;20097;-33
2023/11/18 14:12:14;;;;;;;40.28;4.15;;;;;;;;;;5047396;28;20029;-34
2023/11/18 14:14:41;;;;;;;32.75;3.60;;;;;;;;;;5050513;28;20040;-33
2023/11/18 14:17:10;;;;;;;25.92;3.50;;;;;;;;;;5050664;28;20036;-31
2023/11/18 14:19:37;;;;;;;27.60;3.45;;;;;;;;;;5051134;28;20029;-31
2023/11/18 14:22:09;;;;;;;19.30;2.85;;;;;;;;;;5054420;28;20475;-31
2023/11/18 14:24:36;;;;;;;30.63;3.55;;;;;;;;;;5053847;28;20041;-33
2023/11/18 14:27:04;;;;;;;36.20;3.78;;;;;;;;;;5054161;28;20052;-34
2023/11/18 14:29:31;;;;;;;51.25;4.82;;;;;;;;;;5045071;28;20041;-31
2023/11/18 14:31:58;;;;;;;52.65;4.55;;;;;;;;;;5044683;28;20041;-31
2023/11/18 14:34:25;;;;;;;38.15;4.05;;;;;;;;;;5053655;28;20025;-33
2023/11/18 14:36:52;;;;;;;30.88;3.22;;;;;;;;;;5029699;28;20464;-33
2023/11/18 14:39:22;;;;;;;70.15;4.38;;;;;;;;;;5041663;28;20057;-37
2023/11/18 14:41:49;;;;;;;51.33;3.75;;;;;;;;;;5041597;28;20430;-33
2023/11/18 14:44:17;;;;;;;48.25;3.97;;;;;;;;;;5033629;28;20032;-31
2023/11/18 14:46:45;;;;;;;30.27;3.55;;;;;;;;;;5050858;28;20049;-31